createdAt,value
2023-04-16T00:00:15.105Z,25.33
2023-04-16T00:01:17.236Z,28.65
2023-04-16T00:02:19.810Z,26.23
2023-04-16T00:03:22.180Z,25.25
2023-04-16T00:04:24.607Z,27.08
2023-04-16T00:05:27.641Z,25.08
2023-04-16T00:06:29.714Z,25.40
2023-04-16T00:07:31.807Z,25.42
2023-04-16T00:08:35.710Z,25.92
2023-04-16T00:09:37.868Z,26.50
2023-04-16T00:10:40.016Z,26.08
2023-04-16T00:11:42.133Z,27.10
2023-04-16T00:12:44.389Z,26.98
2023-04-16T00:13:46.497Z,29.10
2023-04-16T00:14:49.213Z,28.40
2023-04-16T00:15:51.384Z,27.98
2023-04-16T00:16:53.520Z,27.52
2023-04-16T00:17:55.690Z,28.60
2023-04-16T00:18:57.827Z,27.20
2023-04-16T00:19:59.884Z,28.23
2023-04-16T00:21:01.973Z,29.27
2023-04-16T00:22:04.081Z,26.85
2023-04-16T00:23:06.222Z,28.65
2023-04-16T00:24:08.484Z,27.05
2023-04-16T00:25:10.626Z,26.90
2023-04-16T00:26:12.725Z,27.17
2023-04-16T00:27:14.870Z,30.20
2023-04-16T00:28:17.042Z,27.55
2023-04-16T00:29:19.300Z,27.70
2023-04-16T00:30:21.449Z,28.00
2023-04-16T00:31:30.954Z,29.08
2023-04-16T00:32:33.146Z,26.55
2023-04-16T00:33:35.465Z,28.73
2023-04-16T00:34:37.548Z,27.50
2023-04-16T00:35:39.960Z,25.45
2023-04-16T00:36:42.048Z,28.10
2023-04-16T00:37:44.235Z,25.55
2023-04-16T00:38:46.354Z,25.15
2023-04-16T00:39:48.453Z,24.67
2023-04-16T00:40:50.629Z,24.15
2023-04-16T00:41:52.727Z,24.48
2023-04-16T00:42:54.845Z,24.50
2023-04-16T00:43:56.996Z,24.40
2023-04-16T00:44:59.115Z,25.10
2023-04-16T00:46:01.493Z,26.45
2023-04-16T00:47:04.226Z,23.75
2023-04-16T00:48:06.334Z,24.67
2023-04-16T00:49:08.669Z,24.65
2023-04-16T00:50:11.836Z,25.02
2023-04-16T00:51:14.021Z,26.35
2023-04-16T00:52:16.140Z,23.75
2023-04-16T00:53:18.246Z,26.98
2023-04-16T00:54:20.573Z,25.05
2023-04-16T00:55:22.884Z,24.55
2023-04-16T00:56:25.602Z,25.33
2023-04-16T00:57:28.013Z,25.05
2023-04-16T00:58:30.478Z,24.85
2023-04-16T00:59:32.637Z,24.27
2023-04-16T01:00:34.754Z,25.63
2023-04-16T01:01:36.919Z,24.98
2023-04-16T01:02:39.499Z,28.02
2023-04-16T01:03:47.182Z,24.65
2023-04-16T01:04:49.375Z,23.63
2023-04-16T01:05:51.554Z,24.30
2023-04-16T01:06:53.661Z,24.40
2023-04-16T01:07:59.684Z,25.70
2023-04-16T01:09:01.873Z,25.98
2023-04-16T01:10:04.292Z,27.02
2023-04-16T01:11:06.593Z,24.85
2023-04-16T01:12:08.744Z,25.67
2023-04-16T01:13:11.166Z,26.52
2023-04-16T01:14:13.296Z,24.92
2023-04-16T01:15:15.639Z,26.08
2023-04-16T01:16:17.808Z,27.05
2023-04-16T01:17:19.977Z,25.10
2023-04-16T01:18:22.895Z,25.83
2023-04-16T01:19:25.032Z,24.73
2023-04-16T01:20:27.129Z,27.27
2023-04-16T01:21:29.301Z,24.95
2023-04-16T01:22:31.605Z,25.50
2023-04-16T01:23:33.750Z,24.02
2023-04-16T01:24:36.475Z,25.20
2023-04-16T01:25:39.297Z,23.08
2023-04-16T01:26:41.377Z,24.42
2023-04-16T01:27:43.626Z,24.85
2023-04-16T01:28:45.756Z,26.13
2023-04-16T01:29:47.848Z,25.70
2023-04-16T01:30:49.975Z,26.77
2023-04-16T01:31:52.102Z,25.83
2023-04-16T01:32:54.303Z,25.30
2023-04-16T01:33:56.436Z,26.27
2023-04-16T01:34:58.528Z,25.55
2023-04-16T01:36:00.703Z,28.88
2023-04-16T01:37:03.856Z,27.45
2023-04-16T01:38:06.831Z,26.02
2023-04-16T01:39:13.771Z,25.10
2023-04-16T01:40:16.342Z,26.23
2023-04-16T01:41:18.522Z,24.20
2023-04-16T01:42:20.786Z,25.13
2023-04-16T01:43:22.978Z,24.40
2023-04-16T01:44:25.614Z,22.25
2023-04-16T01:45:27.693Z,24.08
2023-04-16T01:46:32.166Z,23.35
2023-04-16T01:47:34.412Z,24.33
2023-04-16T01:48:36.529Z,22.58
2023-04-16T01:49:38.675Z,22.65
2023-04-16T01:50:41.512Z,22.67
2023-04-16T01:51:43.608Z,23.63
2023-04-16T01:52:45.882Z,23.48
2023-04-16T01:53:47.988Z,22.15
2023-04-16T01:54:50.200Z,20.83
2023-04-16T01:55:52.309Z,22.48
2023-04-16T01:56:54.412Z,21.45
2023-04-16T01:57:56.478Z,22.38
2023-04-16T01:58:58.598Z,22.25
2023-04-16T02:00:00.786Z,21.05
2023-04-16T02:01:03.259Z,23.17
2023-04-16T02:02:12.355Z,21.52
2023-04-16T02:03:17.715Z,20.05
2023-04-16T02:04:19.876Z,22.67
2023-04-16T02:05:22.091Z,22.25
2023-04-16T02:06:24.264Z,21.17
2023-04-16T02:07:27.435Z,21.80
2023-04-16T02:08:29.600Z,21.00
2023-04-16T02:09:31.989Z,20.73
2023-04-16T02:10:34.099Z,20.92
2023-04-16T02:11:36.319Z,20.88
2023-04-16T02:12:38.518Z,21.27
2023-04-16T02:13:40.757Z,19.77
2023-04-16T02:14:43.258Z,19.05
2023-04-16T02:15:49.739Z,21.23
2023-04-16T02:16:52.381Z,20.25
2023-04-16T02:17:57.004Z,20.48
2023-04-16T02:20:03.384Z,17.00
2023-04-16T02:21:06.563Z,20.08
2023-04-16T02:22:08.708Z,18.65
2023-04-16T02:23:11.961Z,19.25
2023-04-16T02:24:14.107Z,18.63
2023-04-16T02:25:16.260Z,17.63
2023-04-16T02:26:18.450Z,18.88
2023-04-16T02:27:20.696Z,18.50
2023-04-16T02:28:22.856Z,18.98
2023-04-16T02:29:24.967Z,18.73
2023-04-16T02:30:27.210Z,18.55
2023-04-16T02:31:29.730Z,18.60
2023-04-16T02:32:31.827Z,19.75
2023-04-16T02:33:35.918Z,19.73
2023-04-16T02:34:40.251Z,19.55
2023-04-16T02:35:42.481Z,19.83
2023-04-16T02:36:44.650Z,20.48
2023-04-16T02:37:46.774Z,21.25
2023-04-16T02:38:48.938Z,20.70
2023-04-16T02:39:51.515Z,20.92
2023-04-16T02:40:53.763Z,21.15
2023-04-16T02:41:56.243Z,20.08
2023-04-16T02:42:58.362Z,20.30
2023-04-16T02:44:01.000Z,20.25
2023-04-16T02:45:03.286Z,22.50
2023-04-16T02:46:05.513Z,22.88
2023-04-16T02:47:07.783Z,22.17
2023-04-16T02:48:10.032Z,23.42
2023-04-16T02:49:12.256Z,23.20
2023-04-16T02:50:14.717Z,23.05
2023-04-16T02:51:16.861Z,22.85
2023-04-16T02:52:18.980Z,23.92
2023-04-16T02:53:21.442Z,21.20
2023-04-16T02:54:23.596Z,22.65
2023-04-16T02:55:25.832Z,21.75
2023-04-16T02:56:27.940Z,22.98
2023-04-16T02:57:30.207Z,21.98
2023-04-16T02:58:32.425Z,23.77
2023-04-16T02:59:34.506Z,21.88
2023-04-16T03:00:38.209Z,22.15
2023-04-16T03:01:40.370Z,21.30
2023-04-16T03:02:42.692Z,22.25
2023-04-16T03:03:44.950Z,22.67
2023-04-16T03:04:47.149Z,22.38
2023-04-16T03:05:49.274Z,21.75
2023-04-16T03:06:51.377Z,21.98
2023-04-16T03:07:56.771Z,24.65
2023-04-16T03:08:59.044Z,23.15
2023-04-16T03:10:01.168Z,21.48
2023-04-16T03:11:03.298Z,26.45
2023-04-16T03:12:05.648Z,23.25
2023-04-16T03:13:07.901Z,23.55
2023-04-16T03:14:09.976Z,24.50
2023-04-16T03:15:12.153Z,22.13
2023-04-16T03:16:14.376Z,21.95
2023-04-16T03:17:16.681Z,23.52
2023-04-16T03:18:18.921Z,24.48
2023-04-16T03:19:21.061Z,25.58
2023-04-16T03:20:23.425Z,25.50
2023-04-16T03:21:27.671Z,25.70
2023-04-16T03:22:30.209Z,24.55
2023-04-16T03:23:32.352Z,25.95
2023-04-16T03:24:34.451Z,25.30
2023-04-16T03:25:36.694Z,26.00
2023-04-16T03:26:38.873Z,27.80
2023-04-16T03:27:41.013Z,26.77
2023-04-16T03:28:43.165Z,25.13
2023-04-16T03:29:45.357Z,24.48
2023-04-16T03:30:53.774Z,25.52
2023-04-16T03:31:56.096Z,23.83
2023-04-16T03:32:58.256Z,23.23
2023-04-16T03:34:00.595Z,22.98
2023-04-16T03:35:06.971Z,23.33
2023-04-16T03:36:10.157Z,21.75
2023-04-16T03:37:12.359Z,23.58
2023-04-16T03:38:14.518Z,21.02
2023-04-16T03:39:16.781Z,21.73
2023-04-16T03:40:18.907Z,21.25
2023-04-16T03:41:20.999Z,20.88
2023-04-16T03:42:23.082Z,21.75
2023-04-16T03:43:25.233Z,18.88
2023-04-16T03:44:27.298Z,19.33
2023-04-16T03:45:29.392Z,21.15
2023-04-16T03:46:31.572Z,19.00
2023-04-16T03:47:33.689Z,19.10
2023-04-16T03:48:36.614Z,18.77
2023-04-16T03:49:38.808Z,19.17
2023-04-16T03:50:41.280Z,19.85
2023-04-16T03:51:43.374Z,18.40
2023-04-16T03:52:46.959Z,18.30
2023-04-16T03:53:49.070Z,20.25
2023-04-16T03:54:51.294Z,20.60
2023-04-16T03:55:53.359Z,20.00
2023-04-16T03:56:55.454Z,22.08
2023-04-16T03:57:57.706Z,23.48
2023-04-16T03:58:59.807Z,22.70
2023-04-16T04:00:01.912Z,20.38
2023-04-16T04:01:03.999Z,20.27
2023-04-16T04:02:06.227Z,19.38
2023-04-16T04:03:08.515Z,19.35
2023-04-16T04:04:11.092Z,19.90
2023-04-16T04:05:13.397Z,19.05
2023-04-16T04:06:15.575Z,18.63
2023-04-16T04:07:17.655Z,20.08
2023-04-16T04:08:19.888Z,20.48
2023-04-16T04:09:22.001Z,18.45
2023-04-16T04:10:24.107Z,18.98
2023-04-16T04:11:26.305Z,18.88
2023-04-16T04:12:28.454Z,19.95
2023-04-16T04:13:30.641Z,18.15
2023-04-16T04:14:32.742Z,18.27
2023-04-16T04:15:34.925Z,18.75
2023-04-16T04:16:37.040Z,18.08
2023-04-16T04:17:39.192Z,19.10
2023-04-16T04:18:42.716Z,18.77
2023-04-16T04:20:00.016Z,19.10
2023-04-16T04:21:09.538Z,17.95
2023-04-16T04:22:11.641Z,18.63
2023-04-16T04:23:13.711Z,21.23
2023-04-16T04:24:15.817Z,18.73
2023-04-16T04:25:17.982Z,19.40
2023-04-16T04:26:20.212Z,17.30
2023-04-16T04:27:22.332Z,18.92
2023-04-16T04:28:24.432Z,19.10
2023-04-16T04:29:26.516Z,19.35
2023-04-16T04:30:28.661Z,19.10
2023-04-16T04:31:31.038Z,19.67
2023-04-16T04:32:33.244Z,18.60
2023-04-16T04:33:35.473Z,19.58
2023-04-16T04:34:37.557Z,19.25
2023-04-16T04:35:39.714Z,19.88
2023-04-16T04:36:41.972Z,18.90
2023-04-16T04:37:44.056Z,18.95
2023-04-16T04:38:46.221Z,17.98
2023-04-16T04:39:48.430Z,19.17
2023-04-16T04:40:52.065Z,16.80
2023-04-16T04:41:54.155Z,17.05
2023-04-16T04:42:56.256Z,16.45
2023-04-16T04:43:58.325Z,16.38
2023-04-16T04:45:00.649Z,15.85
2023-04-16T04:46:02.871Z,15.70
2023-04-16T04:47:05.022Z,15.38
2023-04-16T04:48:07.276Z,15.15
2023-04-16T04:49:09.649Z,16.30
2023-04-16T04:50:11.915Z,15.60
2023-04-16T04:51:14.075Z,14.82
2023-04-16T04:52:16.205Z,15.82
2023-04-16T04:53:18.398Z,14.98
2023-04-16T04:54:20.525Z,15.77
2023-04-16T04:55:22.756Z,17.60
2023-04-16T04:56:24.906Z,15.27
2023-04-16T04:57:27.044Z,15.85
2023-04-16T04:58:29.147Z,15.55
2023-04-16T04:59:31.265Z,15.90
2023-04-16T05:00:34.228Z,15.15
2023-04-16T05:01:36.455Z,15.57
2023-04-16T05:02:38.761Z,18.33
2023-04-16T05:03:41.290Z,15.73
2023-04-16T05:04:43.561Z,13.98
2023-04-16T05:05:45.899Z,14.98
2023-04-16T05:06:47.978Z,15.30
2023-04-16T05:07:50.101Z,16.63
2023-04-16T05:08:52.218Z,14.65
2023-04-16T05:09:54.355Z,14.80
2023-04-16T05:10:56.480Z,16.02
2023-04-16T05:11:58.907Z,14.85
2023-04-16T05:13:01.265Z,15.90
2023-04-16T05:14:03.360Z,15.20
2023-04-16T05:15:06.044Z,14.55
2023-04-16T05:16:08.181Z,14.00
2023-04-16T05:17:11.043Z,15.32
2023-04-16T05:18:13.203Z,16.90
2023-04-16T05:19:17.086Z,15.38
2023-04-16T05:20:19.251Z,15.43
2023-04-16T05:21:21.567Z,15.95
2023-04-16T05:22:23.667Z,14.90
2023-04-16T05:23:25.742Z,14.50
2023-04-16T05:24:27.822Z,14.85
2023-04-16T05:25:29.922Z,14.20
2023-04-16T05:26:32.039Z,13.43
2023-04-16T05:27:34.133Z,12.18
2023-04-16T05:28:36.227Z,13.88
2023-04-16T05:29:38.322Z,12.90
2023-04-16T05:30:40.495Z,13.13
2023-04-16T05:31:42.735Z,14.90
2023-04-16T05:32:44.883Z,14.07
2023-04-16T05:33:47.014Z,13.07
2023-04-16T05:34:49.131Z,13.80
2023-04-16T05:35:51.376Z,12.45
2023-04-16T05:36:53.502Z,13.05
2023-04-16T05:37:55.691Z,13.90
2023-04-16T05:38:57.839Z,13.35
2023-04-16T05:39:59.963Z,13.80
2023-04-16T05:41:02.045Z,12.80
2023-04-16T05:42:04.243Z,12.60
2023-04-16T05:43:06.357Z,13.35
2023-04-16T05:44:08.518Z,13.45
2023-04-16T05:45:10.969Z,12.90
2023-04-16T05:46:13.201Z,12.73
2023-04-16T05:47:15.547Z,12.60
2023-04-16T05:48:17.645Z,12.80
2023-04-16T05:49:20.247Z,13.07
2023-04-16T05:50:22.380Z,11.90
2023-04-16T05:51:26.143Z,12.30
2023-04-16T05:52:28.261Z,14.13
2023-04-16T05:53:30.372Z,11.93
2023-04-16T05:54:32.454Z,12.77
2023-04-16T05:55:36.836Z,13.10
2023-04-16T05:56:38.959Z,12.55
2023-04-16T05:57:41.099Z,12.38
2023-04-16T05:58:43.259Z,14.88
2023-04-16T05:59:45.382Z,12.68
2023-04-16T06:00:47.598Z,11.65
2023-04-16T06:01:49.741Z,12.80
2023-04-16T06:02:51.960Z,11.95
2023-04-16T06:03:54.305Z,11.93
2023-04-16T06:04:56.497Z,10.98
2023-04-16T06:05:58.667Z,11.57
2023-04-16T06:07:00.940Z,11.52
2023-04-16T06:08:03.057Z,11.07
2023-04-16T06:09:05.228Z,10.15
2023-04-16T06:10:07.715Z,11.18
2023-04-16T06:11:09.879Z,11.95
2023-04-16T06:12:11.988Z,11.68
2023-04-16T06:13:14.159Z,11.07
2023-04-16T06:14:16.286Z,11.85
2023-04-16T06:15:18.447Z,12.02
2023-04-16T06:16:20.587Z,12.45
2023-04-16T06:17:22.962Z,11.63
2023-04-16T06:18:25.253Z,12.40
2023-04-16T06:19:27.394Z,12.30
2023-04-16T06:20:29.673Z,12.10
2023-04-16T06:21:32.247Z,11.80
2023-04-16T06:22:34.374Z,11.90
2023-04-16T06:23:36.515Z,12.18
2023-04-16T06:24:38.626Z,11.35
2023-04-16T06:25:40.773Z,10.27
2023-04-16T06:26:42.889Z,10.65
2023-04-16T06:27:45.000Z,10.60
2023-04-16T06:28:47.088Z,11.13
2023-04-16T06:29:49.361Z,10.32
2023-04-16T06:30:51.487Z,10.55
2023-04-16T06:31:53.727Z,11.55
2023-04-16T06:32:55.984Z,11.13
2023-04-16T06:33:58.259Z,12.23
2023-04-16T06:35:00.456Z,11.05
2023-04-16T06:36:02.586Z,12.93
2023-04-16T06:37:04.810Z,13.10
2023-04-16T06:38:06.930Z,12.20
2023-04-16T06:39:09.440Z,10.77
2023-04-16T06:40:12.205Z,11.20
2023-04-16T06:41:14.553Z,11.40
2023-04-16T06:42:16.725Z,10.68
2023-04-16T06:43:18.906Z,10.68
2023-04-16T06:44:21.081Z,11.25
2023-04-16T06:45:23.250Z,8.88
2023-04-16T06:46:25.456Z,10.32
2023-04-16T06:47:27.654Z,8.70
2023-04-16T06:48:30.107Z,11.43
2023-04-16T06:49:32.236Z,10.00
2023-04-16T06:50:34.496Z,10.23
2023-04-16T06:51:36.666Z,9.75
2023-04-16T06:52:38.758Z,8.32
2023-04-16T06:53:41.096Z,9.75
2023-04-16T06:54:43.334Z,9.70
2023-04-16T06:55:45.603Z,9.05
2023-04-16T06:56:47.702Z,8.98
2023-04-16T06:57:49.820Z,9.90
2023-04-16T06:58:52.009Z,9.85
2023-04-16T06:59:54.140Z,10.43
2023-04-16T07:00:56.323Z,11.38
2023-04-16T07:01:58.635Z,11.13
2023-04-16T07:03:01.966Z,10.95
2023-04-16T07:04:04.589Z,11.05
2023-04-16T07:05:07.200Z,10.18
2023-04-16T07:06:09.331Z,9.40
2023-04-16T07:07:11.426Z,8.70
2023-04-16T07:08:13.576Z,10.65
2023-04-16T07:09:15.712Z,10.70
2023-04-16T07:10:18.328Z,11.23
2023-04-16T07:11:20.984Z,9.95
2023-04-16T07:12:23.225Z,10.30
2023-04-16T07:13:26.014Z,10.57
2023-04-16T07:14:28.158Z,10.05
2023-04-16T07:15:30.349Z,8.85
2023-04-16T07:16:32.489Z,9.48
2023-04-16T07:17:34.762Z,9.07
2023-04-16T07:18:36.973Z,8.82
2023-04-16T07:19:39.120Z,9.65
2023-04-16T07:20:41.265Z,8.65
2023-04-16T07:21:43.857Z,8.13
2023-04-16T07:22:46.175Z,8.75
2023-04-16T07:23:48.295Z,8.82
2023-04-16T07:24:50.399Z,7.53
2023-04-16T07:25:52.542Z,8.10
2023-04-16T07:26:54.623Z,7.90
2023-04-16T07:27:56.798Z,6.90
2023-04-16T07:28:58.903Z,7.07
2023-04-16T07:30:00.993Z,7.85
2023-04-16T07:31:03.137Z,7.30
2023-04-16T07:32:05.399Z,7.95
2023-04-16T07:33:07.678Z,8.15
2023-04-16T07:34:09.824Z,8.90
2023-04-16T07:35:11.964Z,8.45
2023-04-16T07:36:14.111Z,8.50
2023-04-16T07:37:16.294Z,8.57
2023-04-16T07:38:18.390Z,8.23
2023-04-16T07:39:20.481Z,8.15
2023-04-16T07:40:23.676Z,7.72
2023-04-16T07:41:25.969Z,8.38
2023-04-16T07:42:28.614Z,7.70
2023-04-16T07:43:30.740Z,7.45
2023-04-16T07:44:32.871Z,7.53
2023-04-16T07:45:35.037Z,7.15
2023-04-16T07:46:46.300Z,7.32
2023-04-16T07:47:48.933Z,6.80
2023-04-16T07:48:51.082Z,7.22
2023-04-16T07:49:53.828Z,6.78
2023-04-16T07:50:55.959Z,6.90
2023-04-16T07:51:58.043Z,7.15
2023-04-16T07:53:00.276Z,7.25
2023-04-16T07:54:02.773Z,7.30
2023-04-16T07:55:05.590Z,7.20
2023-04-16T07:56:07.933Z,7.43
2023-04-16T07:57:10.037Z,7.22
2023-04-16T07:58:12.132Z,6.13
2023-04-16T07:59:23.105Z,6.60
2023-04-16T08:00:26.457Z,6.28
2023-04-16T08:01:28.612Z,6.22
2023-04-16T08:02:30.909Z,6.47
2023-04-16T08:03:33.377Z,6.45
2023-04-16T08:04:35.860Z,5.85
2023-04-16T08:05:38.196Z,6.65
2023-04-16T08:06:40.485Z,6.60
2023-04-16T08:07:42.653Z,6.03
2023-04-16T08:08:44.781Z,6.68
2023-04-16T08:09:56.660Z,5.85
2023-04-16T08:10:59.141Z,6.05
2023-04-16T08:12:01.983Z,7.57
2023-04-16T08:13:04.152Z,5.50
2023-04-16T08:14:06.448Z,6.47
2023-04-16T08:15:09.097Z,6.28
2023-04-16T08:16:11.288Z,5.93
2023-04-16T08:17:14.470Z,5.47
2023-04-16T08:18:16.779Z,5.55
2023-04-16T08:19:19.026Z,5.60
2023-04-16T08:20:21.129Z,5.25
2023-04-16T08:21:23.262Z,6.10
2023-04-16T08:22:26.403Z,5.28
2023-04-16T08:23:28.611Z,5.35
2023-04-16T08:24:30.733Z,5.55
2023-04-16T08:25:32.860Z,5.65
2023-04-16T08:26:35.006Z,5.72
2023-04-16T08:27:37.209Z,5.25
2023-04-16T08:28:39.383Z,5.13
2023-04-16T08:29:41.509Z,5.10
2023-04-16T08:30:45.611Z,5.25
2023-04-16T08:31:47.848Z,5.57
2023-04-16T08:32:50.566Z,5.18
2023-04-16T08:33:52.766Z,5.45
2023-04-16T08:34:54.926Z,5.25
2023-04-16T08:35:57.151Z,4.60
2023-04-16T08:36:59.304Z,5.53
2023-04-16T08:38:02.922Z,5.65
2023-04-16T08:39:05.056Z,5.13
2023-04-16T08:40:07.976Z,5.63
2023-04-16T08:41:12.889Z,5.10
2023-04-16T08:42:24.106Z,5.63
2023-04-16T08:43:26.423Z,4.93
2023-04-16T08:44:32.281Z,5.30
2023-04-16T08:45:35.090Z,5.10
2023-04-16T08:46:38.273Z,5.40
2023-04-16T08:47:41.703Z,5.10
2023-04-16T08:48:44.402Z,4.97
2023-04-16T08:49:46.594Z,4.93
2023-04-16T08:50:52.512Z,6.32
2023-04-16T08:51:57.649Z,6.25
2023-04-16T08:53:00.900Z,5.35
2023-04-16T08:54:05.720Z,5.70
2023-04-16T08:55:38.521Z,5.97
2023-04-16T08:56:43.240Z,5.07
2023-04-16T08:57:51.372Z,5.15
2023-04-16T08:58:54.872Z,5.50
2023-04-16T08:59:58.062Z,6.05
2023-04-16T09:01:01.416Z,5.43
2023-04-16T09:02:04.243Z,5.60
2023-04-16T09:03:07.032Z,5.20
2023-04-16T09:04:09.485Z,4.80
2023-04-16T09:05:17.075Z,5.90
2023-04-16T09:06:19.699Z,5.32
2023-04-16T09:07:22.092Z,5.35
2023-04-16T09:08:24.439Z,5.70
2023-04-16T09:09:27.664Z,5.57
2023-04-16T09:10:29.856Z,4.85
2023-04-16T09:11:32.236Z,4.97
2023-04-16T09:12:35.460Z,5.55
2023-04-16T09:13:38.180Z,5.47
2023-04-16T09:14:41.957Z,5.53
2023-04-16T09:15:44.221Z,5.95
2023-04-16T09:16:47.688Z,4.82
2023-04-16T09:17:49.824Z,5.03
2023-04-16T09:18:52.264Z,5.38
2023-04-16T09:19:54.989Z,5.35
2023-04-16T09:20:57.584Z,5.75
2023-04-16T09:21:59.763Z,6.03
2023-04-16T09:23:01.912Z,4.93
2023-04-16T09:24:04.255Z,5.28
2023-04-16T09:25:07.075Z,5.32
2023-04-16T09:26:09.185Z,5.75
2023-04-16T09:27:12.554Z,5.45
2023-04-16T09:28:47.165Z,5.60
2023-04-16T09:29:49.547Z,5.55
2023-04-16T09:30:51.622Z,5.70
2023-04-16T09:32:04.877Z,5.13
2023-04-16T09:33:23.354Z,4.85
2023-04-16T09:34:25.714Z,5.18
2023-04-16T09:35:27.837Z,5.78
2023-04-16T09:36:31.357Z,5.18
2023-04-16T09:37:33.517Z,4.97
2023-04-16T09:38:53.405Z,5.10
2023-04-16T09:40:01.630Z,5.03
2023-04-16T09:41:10.603Z,5.40
2023-04-16T09:42:14.411Z,5.22
2023-04-16T09:43:18.494Z,5.65
2023-04-16T09:44:20.876Z,5.07
2023-04-16T09:45:23.016Z,5.05
2023-04-16T09:46:36.227Z,4.82
2023-04-16T09:47:41.314Z,4.82
2023-04-16T09:48:46.042Z,4.95
2023-04-16T09:50:51.698Z,5.15
2023-04-16T09:51:56.154Z,4.80
2023-04-16T09:53:02.502Z,5.03
2023-04-16T09:54:05.597Z,4.95
2023-04-16T09:55:07.946Z,5.80
2023-04-16T09:56:11.588Z,4.93
2023-04-16T09:57:14.785Z,5.28
2023-04-16T09:58:19.450Z,5.30
2023-04-16T10:00:23.847Z,5.72
2023-04-16T10:01:26.212Z,5.32
2023-04-16T10:02:29.102Z,5.15
2023-04-16T10:03:32.805Z,4.70
2023-04-16T10:04:52.107Z,4.95
2023-04-16T10:05:54.306Z,4.20
2023-04-16T10:07:04.725Z,4.07
2023-04-16T10:08:17.282Z,4.05
2023-04-16T10:09:19.423Z,4.43
2023-04-16T10:10:22.384Z,4.40
2023-04-16T10:11:24.740Z,4.32
2023-04-16T10:12:29.908Z,4.45
2023-04-16T10:13:32.433Z,4.57
2023-04-16T10:14:34.838Z,4.55
2023-04-16T10:15:37.056Z,4.65
2023-04-16T10:16:41.165Z,3.97
2023-04-16T10:17:43.812Z,4.72
2023-04-16T10:18:46.904Z,4.05
2023-04-16T10:19:49.091Z,3.92
2023-04-16T10:20:51.866Z,4.88
2023-04-16T10:21:55.646Z,4.22
2023-04-16T10:22:57.814Z,4.13
2023-04-16T10:24:00.603Z,3.83
2023-04-16T10:25:03.362Z,3.85
2023-04-16T10:26:05.911Z,4.00
2023-04-16T10:27:07.997Z,3.53
2023-04-16T10:28:10.394Z,3.53
2023-04-16T10:29:13.453Z,3.83
2023-04-16T10:30:15.912Z,3.53
2023-04-16T10:31:18.105Z,3.60
2023-04-16T10:32:21.891Z,3.72
2023-04-16T10:33:27.601Z,3.50
2023-04-16T10:34:31.356Z,3.47
2023-04-16T10:35:33.416Z,3.55
2023-04-16T10:36:38.568Z,4.05
2023-04-16T10:37:41.180Z,3.65
2023-04-16T10:38:52.742Z,4.10
2023-04-16T10:39:54.864Z,3.80
2023-04-16T10:41:01.091Z,3.50
2023-04-16T10:42:11.869Z,3.40
2023-04-16T10:43:18.231Z,4.00
2023-04-16T10:44:20.379Z,4.18
2023-04-16T10:45:31.024Z,3.55
2023-04-16T10:46:34.710Z,3.25
2023-04-16T10:47:40.350Z,3.30
2023-04-16T10:48:49.671Z,2.92
2023-04-16T10:49:52.656Z,2.80
2023-04-16T10:50:58.123Z,2.97
2023-04-16T10:52:03.710Z,3.63
2023-04-16T10:53:23.972Z,2.58
2023-04-16T10:54:30.353Z,2.90
2023-04-16T10:55:33.935Z,2.97
2023-04-16T10:56:36.882Z,3.00
2023-04-16T10:57:38.995Z,2.80
2023-04-16T10:58:41.808Z,2.92
2023-04-16T10:59:44.450Z,2.78
2023-04-16T11:00:50.515Z,3.22
2023-04-16T11:01:55.078Z,3.03
2023-04-16T11:02:57.508Z,2.95
2023-04-16T11:04:02.166Z,3.70
2023-04-16T11:05:05.238Z,3.28
2023-04-16T11:06:17.962Z,3.20
2023-04-16T11:07:32.164Z,3.15
2023-04-16T11:08:38.829Z,2.92
2023-04-16T11:09:47.560Z,3.45
2023-04-16T11:10:49.726Z,2.47
2023-04-16T11:11:52.008Z,2.63
2023-04-16T11:12:55.106Z,2.92
2023-04-16T11:13:57.271Z,2.30
2023-04-16T11:15:05.085Z,2.60
2023-04-16T11:16:07.442Z,2.45
2023-04-16T11:17:10.300Z,2.60
2023-04-16T11:18:12.496Z,2.83
2023-04-16T11:19:17.739Z,3.05
2023-04-16T11:20:21.755Z,2.92
2023-04-16T11:21:24.398Z,6.78
2023-04-16T11:22:27.145Z,2.80
2023-04-16T11:23:29.265Z,2.97
2023-04-16T11:24:34.634Z,2.70
2023-04-16T11:25:36.952Z,2.75
2023-04-16T11:26:39.090Z,2.80
2023-04-16T11:27:41.285Z,2.50
2023-04-16T11:28:43.398Z,2.22
2023-04-16T11:29:47.432Z,2.22
2023-04-16T11:30:49.820Z,2.53
2023-04-16T11:31:53.069Z,2.13
2023-04-16T11:32:55.379Z,2.03
2023-04-16T11:33:57.857Z,2.13
2023-04-16T11:35:03.864Z,1.90
2023-04-16T11:36:06.230Z,2.17
2023-04-16T11:37:08.411Z,2.00
2023-04-16T11:38:10.533Z,2.05
2023-04-16T11:39:12.902Z,1.80
2023-04-16T11:40:15.509Z,1.88
2023-04-16T11:41:21.855Z,2.22
2023-04-16T11:42:24.125Z,1.75
2023-04-16T11:43:26.778Z,1.95
2023-04-16T11:44:29.752Z,1.63
2023-04-16T11:45:31.876Z,2.15
2023-04-16T11:46:40.715Z,2.22
2023-04-16T11:47:47.766Z,1.75
2023-04-16T11:48:51.931Z,1.80
2023-04-16T11:49:54.034Z,1.90
2023-04-16T11:50:59.357Z,1.67
2023-04-16T11:52:01.496Z,1.75
2023-04-16T11:53:04.871Z,1.85
2023-04-16T11:54:10.333Z,1.60
2023-04-16T11:55:14.175Z,1.95
2023-04-16T11:56:25.300Z,1.90
2023-04-16T11:57:29.225Z,2.00
2023-04-16T11:58:31.326Z,1.90
2023-04-16T11:59:34.330Z,1.88
2023-04-16T12:00:36.439Z,2.20
2023-04-16T12:01:40.459Z,2.08
2023-04-16T12:02:43.915Z,1.85
2023-04-16T12:03:49.720Z,2.08
2023-04-16T12:04:52.234Z,2.00
2023-04-16T12:05:54.389Z,2.10
2023-04-16T12:07:06.907Z,1.90
2023-04-16T12:08:10.679Z,1.80
2023-04-16T12:09:26.184Z,1.80
2023-04-16T12:10:29.141Z,2.10
2023-04-16T12:11:43.704Z,2.00
2023-04-16T12:12:46.144Z,2.20
2023-04-16T12:14:12.032Z,2.30
2023-04-16T12:15:14.177Z,1.88
2023-04-16T12:16:19.512Z,2.00
2023-04-16T12:17:21.660Z,1.92
2023-04-16T12:18:26.863Z,2.05
2023-04-16T12:19:29.188Z,2.05
2023-04-16T12:20:39.371Z,2.20
2023-04-16T12:21:48.801Z,2.00
2023-04-16T12:22:52.772Z,1.88
2023-04-16T12:23:54.987Z,1.98
2023-04-16T12:25:04.432Z,1.90
2023-04-16T12:26:12.419Z,4.25
2023-04-16T12:27:16.309Z,2.10
2023-04-16T12:28:30.037Z,2.40
2023-04-16T12:29:32.267Z,2.10
2023-04-16T12:30:34.606Z,2.00
2023-04-16T12:31:38.194Z,2.03
2023-04-16T12:32:41.742Z,1.98
2023-04-16T12:33:43.949Z,2.50
2023-04-16T12:34:52.361Z,2.00
2023-04-16T12:35:54.926Z,1.92
2023-04-16T12:37:09.532Z,2.35
2023-04-16T12:38:12.057Z,1.98
2023-04-16T12:39:15.475Z,2.25
2023-04-16T12:40:17.561Z,2.63
2023-04-16T12:41:19.709Z,2.33
2023-04-16T12:42:22.062Z,2.28
2023-04-16T12:43:24.447Z,2.28
2023-04-16T12:44:27.914Z,2.50
2023-04-16T12:45:30.429Z,1.83
2023-04-16T12:46:32.609Z,2.40
2023-04-16T12:47:34.842Z,2.30
2023-04-16T12:48:38.059Z,2.10
2023-04-16T12:49:40.350Z,2.20
2023-04-16T12:50:44.399Z,2.17
2023-04-16T12:51:46.901Z,1.98
2023-04-16T12:52:49.214Z,2.13
2023-04-16T12:53:51.327Z,2.30
2023-04-16T12:54:53.612Z,2.13
2023-04-16T12:55:55.901Z,2.10
2023-04-16T12:56:58.006Z,2.13
2023-04-16T12:58:00.149Z,2.10
2023-04-16T12:59:02.709Z,2.17
2023-04-16T13:00:06.676Z,2.00
2023-04-16T13:01:08.896Z,1.92
2023-04-16T13:02:11.220Z,2.08
2023-04-16T13:03:13.825Z,2.00
2023-04-16T13:04:18.072Z,2.00
2023-04-16T13:05:20.792Z,2.20
2023-04-16T13:06:23.047Z,2.08
2023-04-16T13:07:27.024Z,2.13
2023-04-16T13:08:29.418Z,2.00
2023-04-16T13:09:31.514Z,1.90
2023-04-16T13:10:33.649Z,1.85
2023-04-16T13:11:36.080Z,1.90
2023-04-16T13:12:38.240Z,2.00
2023-04-16T13:13:40.468Z,2.03
2023-04-16T13:14:44.659Z,2.17
2023-04-16T13:15:47.330Z,1.80
2023-04-16T13:16:49.632Z,1.90
2023-04-16T13:17:51.851Z,1.75
2023-04-16T13:18:54.055Z,2.03
2023-04-16T13:19:56.267Z,2.00
2023-04-16T13:20:58.764Z,1.80
2023-04-16T13:22:00.970Z,1.80
2023-04-16T13:23:05.041Z,2.10
2023-04-16T13:24:07.298Z,1.63
2023-04-16T13:25:10.116Z,2.28
2023-04-16T13:26:14.830Z,1.95
2023-04-16T13:27:17.420Z,2.00
2023-04-16T13:28:20.051Z,1.58
2023-04-16T13:29:22.853Z,2.13
2023-04-16T13:30:25.823Z,1.80
2023-04-16T13:31:28.492Z,1.70
2023-04-16T13:32:30.792Z,1.65
2023-04-16T13:33:33.079Z,1.73
2023-04-16T13:34:35.182Z,1.55
2023-04-16T13:35:37.420Z,1.60
2023-04-16T13:36:39.722Z,1.55
2023-04-16T13:37:41.867Z,1.80
2023-04-16T13:38:44.544Z,1.52
2023-04-16T13:39:47.808Z,1.60
2023-04-16T13:40:50.938Z,1.88
2023-04-16T13:41:53.170Z,1.70
2023-04-16T13:42:55.592Z,1.98
2023-04-16T13:43:57.702Z,2.60
2023-04-16T13:45:00.274Z,1.98
2023-04-16T13:46:03.365Z,1.83
2023-04-16T13:47:06.052Z,1.70
2023-04-16T13:48:08.666Z,1.58
2023-04-16T13:49:11.078Z,2.10
2023-04-16T13:50:13.521Z,1.80